Manns Choice, PA (15550)

10:39 AM EST on February 06, 2016 (GMT -0500)
Lakewood Manor | | Change Station
CLOSE
Current Station
Personal Weather Station
Location: Bedford, PA
Elevation: 1178 ft
Nearby Weather Stations

Elev 1178 ft 40.04 °N, 78.52 °W | Updated 10 minutes ago

Partly Cloudy
Partly Cloudy
32.4 °F
Feels Like 32 °F
N
1.1
Wind Variable Wind from SE

Today
High -- | Low -- °F
--% Chance of Precip.
Yesterday
High -- | Low -- °F
Precip. -- in
Pressure 30.34 in
Visibility 10.0 miles
Clouds Scattered Clouds 6000 ft
Windchill 32 °F
Dew Point 25 °F
Humidity 75%
Rainfall 0.00 in
Snow Depth Not available.
7:18 AM 5:39 PM
Waning Crescent, 5% visible
METAR KHMZ 061515Z AUTO 00000KT 10SM SCT060 M01/M06 A3034 RMK AO2 T10061065
Pressure 30.34 in
Visibility 10.0 miles
Clouds Scattered Clouds 6000 ft
Windchill 32 °F
Dew Point 25 °F
Humidity 75%
Rainfall 0.00 in
Snow Depth Not available.
7:18 AM 5:39 PM
Waning Crescent, 5% visible
METAR KHMZ 061515Z AUTO 00000KT 10SM SCT060 M01/M06 A3034 RMK AO2 T10061065

10-Day Weather Forecast

Almanac

Astronomy

Feb. 06, 2016 Rise Set
Actual Time
Civil Twilight
Nautical Twilight
Astronomical Twilight
Moon
Length of Visible Light
Length of Day
Tomorrow will be .
, % of the Moon is Illuminated

Today's Extremes

State Highs State Lows

Community

WunderPhotos

Upload Photos

1,890,987 photos uploaded!

WunderBlog® & News

Nearby

Air Quality

  Air Quality AQ Index Pollutant
Not available.

Snow Depth

Station Depth Elevation

Earthquake Activity

City Distance Mag. Time & Date
Minimum magnitude displayed is 2.5.

Coastal Water Temperatures

Place Temperature

Stations

Nearby Weather Stations

Station Location Temp. Windchill Dew Point Humidity Wind Precip. Elev Updated Type
                   

Watches & Warnings

There are currently no watches in effect.